Airfield :







YOU CAN JOIN US ON...

 
LOGIN :

Register | Disclaimer

   EN    FR    IT 

 









Legend :    VFR   Marginal VFR   IFR   Intensive IFR   Very Intensive IFR
Visi :
Ceiling :
>= 8 km
>= 3000ft
5 to 8 km
1000 to 3000 ft
1500m to 5 km
500 to 1000 ft
800 to 1500m
200 to 500 ft
< 800m
< 200 ft
Symbols :   Thunderstorms  Fog  Heavy snow  Heavy precipitations  Wind > 20 kt






- Airport Elevation : 11 ft


KGHG - Marshfield Municipal George Harlow Field

CURRENT METAR :
  • 230135Z AUTO 31009G15KT 280V340 10SM 17/03 A2972 RMK AO2

EXPIRED METARs :
  • 230115Z AUTO 31010G17KT 270V010 10SM 17/03 A2972 RMK AO2
  • 230055Z AUTO 32007G17KT 280V350 10SM 17/02 A2973 RMK AO2
  • 230035Z AUTO 30008G18KT 240V340 10SM 17/01 A2973 RMK AO2
  • 230015Z AUTO VRB06G14KT 10SM 17/00 A2974 RMK AO2
  • 222355Z AUTO 30008G15KT 250V340 10SM 17/M00 A2974 RMK AO2
  • 222335Z AUTO 32009G16KT 10SM 18/M01 A2974 RMK AO2
  • 222315Z AUTO 32007G15KT 280V020 10SM 18/M00 A2974 RMK AO2
  • 222255Z AUTO 32009G18KT 10SM 18/01 A2974 RMK AO2

TAF N/A
KZBW FIR / North America



MET'MAP, your aeronautical weather chart ! - Copyright ORBIFLY December 2007 - Disclaimer

ORBIFLY MET'MAP TEAM :

Programming & Development : Alexandra Zaïnal
Concept & original design : Baudouin d'Aumeries
Assistance for programming : Marc-Olivier Méhu
Technical & hardware support : Manuel Goepfert

Contact : metmap@orbifly.com




SOURCES & CREDITS :

   NOAA